sensor_id;sensor_type;location;lat;lon;timestamp;P1;P2;P0
62631;PMS5003;48703;51.248;-0.546;2023-07-31T00:01:28;4.51;3.77;
62631;PMS5003;48703;51.248;-0.546;2023-07-31T00:04:29;3.34;3.06;
62631;PMS5003;48703;51.248;-0.546;2023-07-31T00:07:31;3.36;2.76;
62631;PMS5003;48703;51.248;-0.546;2023-07-31T00:10:32;2.84;2.84;
62631;PMS5003;48703;51.248;-0.546;2023-07-31T00:13:34;2.41;2.41;
62631;PMS5003;48703;51.248;-0.546;2023-07-31T00:16:35;2.46;1.81;
62631;PMS5003;48703;51.248;-0.546;2023-07-31T00:19:36;3.26;2.83;
62631;PMS5003;48703;51.248;-0.546;2023-07-31T00:22:38;2.27;2.03;
62631;PMS5003;48703;51.248;-0.546;2023-07-31T00:25:39;1.49;1.49;
62631;PMS5003;48703;51.248;-0.546;2023-07-31T00:28:41;2.83;2.50;
62631;PMS5003;48703;51.248;-0.546;2023-07-31T00:31:42;1.57;1.57;
62631;PMS5003;48703;51.248;-0.546;2023-07-31T00:34:44;1.64;1.57;
62631;PMS5003;48703;51.248;-0.546;2023-07-31T00:37:45;1.44;1.16;
62631;PMS5003;48703;51.248;-0.546;2023-07-31T00:40:46;1.54;1.54;
62631;PMS5003;48703;51.248;-0.546;2023-07-31T00:43:48;2.63;2.63;
62631;PMS5003;48703;51.248;-0.546;2023-07-31T00:46:49;1.27;1.27;
62631;PMS5003;48703;51.248;-0.546;2023-07-31T00:49:51;1.54;1.30;
62631;PMS5003;48703;51.248;-0.546;2023-07-31T00:52:52;0.90;0.90;
62631;PMS5003;48703;51.248;-0.546;2023-07-31T00:55:54;1.26;1.26;
62631;PMS5003;48703;51.248;-0.546;2023-07-31T00:58:55;1.16;1.16;
62631;PMS5003;48703;51.248;-0.546;2023-07-31T01:01:56;2.04;1.53;
62631;PMS5003;48703;51.248;-0.546;2023-07-31T01:04:58;1.96;1.46;
62631;PMS5003;48703;51.248;-0.546;2023-07-31T01:08:01;1.33;1.33;
62631;PMS5003;48703;51.248;-0.546;2023-07-31T01:11:07;1.26;1.26;
62631;PMS5003;48703;51.248;-0.546;2023-07-31T01:14:02;1.70;1.70;
62631;PMS5003;48703;51.248;-0.546;2023-07-31T01:17:04;2.49;2.49;
62631;PMS5003;48703;51.248;-0.546;2023-07-31T01:20:07;3.61;3.61;
62631;PMS5003;48703;51.248;-0.546;2023-07-31T01:23:10;2.27;2.27;
62631;PMS5003;48703;51.248;-0.546;2023-07-31T01:26:10;3.97;3.56;
62631;PMS5003;48703;51.248;-0.546;2023-07-31T01:29:10;4.39;3.74;
62631;PMS5003;48703;51.248;-0.546;2023-07-31T01:32:11;3.37;3.10;
62631;PMS5003;48703;51.248;-0.546;2023-07-31T01:35:12;5.31;4.61;
62631;PMS5003;48703;51.248;-0.546;2023-07-31T01:38:14;5.03;5.03;
62631;PMS5003;48703;51.248;-0.546;2023-07-31T01:41:16;4.57;4.46;
62631;PMS5003;48703;51.248;-0.546;2023-07-31T01:44:17;6.39;5.97;
62631;PMS5003;48703;51.248;-0.546;2023-07-31T01:47:18;5.94;4.51;
62631;PMS5003;48703;51.248;-0.546;2023-07-31T01:50:19;5.46;4.93;
62631;PMS5003;48703;51.248;-0.546;2023-07-31T01:53:21;5.81;5.36;
62631;PMS5003;48703;51.248;-0.546;2023-07-31T01:56:22;4.77;4.77;
62631;PMS5003;48703;51.248;-0.546;2023-07-31T01:59:24;6.06;5.34;
62631;PMS5003;48703;51.248;-0.546;2023-07-31T02:02:25;4.50;4.50;
62631;PMS5003;48703;51.248;-0.546;2023-07-31T02:05:27;5.47;5.47;
62631;PMS5003;48703;51.248;-0.546;2023-07-31T02:08:28;6.96;6.49;
62631;PMS5003;48703;51.248;-0.546;2023-07-31T02:11:30;6.17;5.54;
62631;PMS5003;48703;51.248;-0.546;2023-07-31T02:14:31;6.13;5.87;
62631;PMS5003;48703;51.248;-0.546;2023-07-31T02:17:32;6.29;5.86;
62631;PMS5003;48703;51.248;-0.546;2023-07-31T02:20:34;6.43;6.11;
62631;PMS5003;48703;51.248;-0.546;2023-07-31T02:23:35;5.21;4.70;
62631;PMS5003;48703;51.248;-0.546;2023-07-31T02:26:36;5.50;5.16;
62631;PMS5003;48703;51.248;-0.546;2023-07-31T02:29:38;4.01;3.87;
62631;PMS5003;48703;51.248;-0.546;2023-07-31T02:32:39;4.90;4.51;
62631;PMS5003;48703;51.248;-0.546;2023-07-31T02:35:41;4.60;4.17;
62631;PMS5003;48703;51.248;-0.546;2023-07-31T02:38:42;4.37;3.80;
62631;PMS5003;48703;51.248;-0.546;2023-07-31T02:41:44;2.96;2.53;
62631;PMS5003;48703;51.248;-0.546;2023-07-31T02:44:45;2.61;2.41;
62631;PMS5003;48703;51.248;-0.546;2023-07-31T02:47:46;2.16;1.93;
62631;PMS5003;48703;51.248;-0.546;2023-07-31T02:50:48;4.03;2.44;
62631;PMS5003;48703;51.248;-0.546;2023-07-31T02:53:49;2.76;2.14;
62631;PMS5003;48703;51.248;-0.546;2023-07-31T02:56:50;1.70;1.70;
62631;PMS5003;48703;51.248;-0.546;2023-07-31T02:59:52;2.61;2.10;
62631;PMS5003;48703;51.248;-0.546;2023-07-31T03:02:53;1.67;1.63;
62631;PMS5003;48703;51.248;-0.546;2023-07-31T03:05:55;1.24;1.24;
62631;PMS5003;48703;51.248;-0.546;2023-07-31T03:08:56;1.64;1.64;
62631;PMS5003;48703;51.248;-0.546;2023-07-31T03:11:57;1.29;0.94;
62631;PMS5003;48703;51.248;-0.546;2023-07-31T03:14:59;1.43;1.39;
62631;PMS5003;48703;51.248;-0.546;2023-07-31T03:18:00;2.20;1.17;
62631;PMS5003;48703;51.248;-0.546;2023-07-31T03:21:02;0.89;0.89;
62631;PMS5003;48703;51.248;-0.546;2023-07-31T03:24:03;1.37;0.56;
62631;PMS5003;48703;51.248;-0.546;2023-07-31T03:27:05;0.34;0.34;
62631;PMS5003;48703;51.248;-0.546;2023-07-31T03:30:06;0.10;0.10;
62631;PMS5003;48703;51.248;-0.546;2023-07-31T03:33:07;0.49;0.37;
62631;PMS5003;48703;51.248;-0.546;2023-07-31T03:36:09;0.37;0.33;
62631;PMS5003;48703;51.248;-0.546;2023-07-31T03:39:10;0.61;0.19;
62631;PMS5003;48703;51.248;-0.546;2023-07-31T03:42:12;1.01;0.37;
62631;PMS5003;48703;51.248;-0.546;2023-07-31T03:45:13;0.69;0.47;
62631;PMS5003;48703;51.248;-0.546;2023-07-31T03:48:14;1.06;0.29;
62631;PMS5003;48703;51.248;-0.546;2023-07-31T03:51:16;0.36;0.36;
62631;PMS5003;48703;51.248;-0.546;2023-07-31T03:54:17;0.56;0.56;
62631;PMS5003;48703;51.248;-0.546;2023-07-31T03:57:19;0.44;0.19;
62631;PMS5003;48703;51.248;-0.546;2023-07-31T04:00:20;1.46;0.90;
62631;PMS5003;48703;51.248;-0.546;2023-07-31T04:03:21;0.11;0.11;
62631;PMS5003;48703;51.248;-0.546;2023-07-31T04:06:23;0.34;0.06;
62631;PMS5003;48703;51.248;-0.546;2023-07-31T04:09:24;0.40;0.31;
62631;PMS5003;48703;51.248;-0.546;2023-07-31T04:12:26;0.46;0.03;
62631;PMS5003;48703;51.248;-0.546;2023-07-31T04:15:27;0.50;0.21;
62631;PMS5003;48703;51.248;-0.546;2023-07-31T04:18:29;0.59;0.59;
62631;PMS5003;48703;51.248;-0.546;2023-07-31T04:21:30;0.77;0.77;
62631;PMS5003;48703;51.248;-0.546;2023-07-31T04:24:32;1.31;0.76;
62631;PMS5003;48703;51.248;-0.546;2023-07-31T04:27:33;0.16;0.16;
62631;PMS5003;48703;51.248;-0.546;2023-07-31T04:30:34;0.80;0.74;
62631;PMS5003;48703;51.248;-0.546;2023-07-31T04:33:36;0.47;0.20;
62631;PMS5003;48703;51.248;-0.546;2023-07-31T04:36:37;0.23;0.03;
62631;PMS5003;48703;51.248;-0.546;2023-07-31T04:39:39;0.76;0.46;
62631;PMS5003;48703;51.248;-0.546;2023-07-31T04:42:40;1.20;0.74;
62631;PMS5003;48703;51.248;-0.546;2023-07-31T04:45:42;0.86;0.27;
62631;PMS5003;48703;51.248;-0.546;2023-07-31T04:48:43;0.73;0.64;
62631;PMS5003;48703;51.248;-0.546;2023-07-31T04:51:44;1.14;0.76;
62631;PMS5003;48703;51.248;-0.546;2023-07-31T04:54:46;2.44;1.50;
62631;PMS5003;48703;51.248;-0.546;2023-07-31T04:57:47;0.69;0.69;
62631;PMS5003;48703;51.248;-0.546;2023-07-31T05:00:48;0.97;0.97;
62631;PMS5003;48703;51.248;-0.546;2023-07-31T05:03:50;0.80;0.41;
62631;PMS5003;48703;51.248;-0.546;2023-07-31T05:06:51;2.57;1.24;
62631;PMS5003;48703;51.248;-0.546;2023-07-31T05:09:53;0.79;0.79;
62631;PMS5003;48703;51.248;-0.546;2023-07-31T05:12:54;2.67;1.64;
62631;PMS5003;48703;51.248;-0.546;2023-07-31T05:15:55;1.47;0.96;
62631;PMS5003;48703;51.248;-0.546;2023-07-31T05:18:57;1.33;1.33;
62631;PMS5003;48703;51.248;-0.546;2023-07-31T05:21:58;1.17;0.91;
62631;PMS5003;48703;51.248;-0.546;2023-07-31T05:25:00;1.99;1.41;
62631;PMS5003;48703;51.248;-0.546;2023-07-31T05:28:01;0.89;0.89;
62631;PMS5003;48703;51.248;-0.546;2023-07-31T05:31:03;1.27;1.19;
62631;PMS5003;48703;51.248;-0.546;2023-07-31T05:34:04;2.77;1.84;
62631;PMS5003;48703;51.248;-0.546;2023-07-31T05:37:05;2.03;2.03;
62631;PMS5003;48703;51.248;-0.546;2023-07-31T05:40:07;4.94;3.24;
62631;PMS5003;48703;51.248;-0.546;2023-07-31T05:43:08;1.67;1.56;
62631;PMS5003;48703;51.248;-0.546;2023-07-31T05:46:09;5.83;5.33;
62631;PMS5003;48703;51.248;-0.546;2023-07-31T05:49:11;2.66;2.44;
62631;PMS5003;48703;51.248;-0.546;2023-07-31T05:52:12;2.14;1.86;
62631;PMS5003;48703;51.248;-0.546;2023-07-31T05:55:13;1.96;1.40;
62631;PMS5003;48703;51.248;-0.546;2023-07-31T05:58:15;1.57;1.20;
62631;PMS5003;48703;51.248;-0.546;2023-07-31T06:01:16;2.40;1.43;
62631;PMS5003;48703;51.248;-0.546;2023-07-31T06:04:18;1.29;1.29;
62631;PMS5003;48703;51.248;-0.546;2023-07-31T06:07:19;3.67;2.03;
62631;PMS5003;48703;51.248;-0.546;2023-07-31T06:10:21;1.40;1.40;
62631;PMS5003;48703;51.248;-0.546;2023-07-31T06:13:22;1.61;1.14;
62631;PMS5003;48703;51.248;-0.546;2023-07-31T06:16:23;2.33;1.47;
62631;PMS5003;48703;51.248;-0.546;2023-07-31T06:19:25;0.97;0.90;
62631;PMS5003;48703;51.248;-0.546;2023-07-31T06:22:26;1.03;0.56;
62631;PMS5003;48703;51.248;-0.546;2023-07-31T06:25:28;1.30;1.30;
62631;PMS5003;48703;51.248;-0.546;2023-07-31T06:28:29;0.90;0.90;
62631;PMS5003;48703;51.248;-0.546;2023-07-31T06:31:30;1.49;1.33;
62631;PMS5003;48703;51.248;-0.546;2023-07-31T06:34:32;2.41;1.41;
62631;PMS5003;48703;51.248;-0.546;2023-07-31T06:37:33;1.96;1.01;
62631;PMS5003;48703;51.248;-0.546;2023-07-31T06:40:35;1.17;1.17;
62631;PMS5003;48703;51.248;-0.546;2023-07-31T06:43:36;1.97;1.03;
62631;PMS5003;48703;51.248;-0.546;2023-07-31T06:46:37;1.69;1.69;
62631;PMS5003;48703;51.248;-0.546;2023-07-31T06:49:39;1.87;1.04;
62631;PMS5003;48703;51.248;-0.546;2023-07-31T06:52:40;2.00;1.20;
62631;PMS5003;48703;51.248;-0.546;2023-07-31T06:55:42;1.93;1.59;
62631;PMS5003;48703;51.248;-0.546;2023-07-31T06:58:43;4.41;4.26;
62631;PMS5003;48703;51.248;-0.546;2023-07-31T07:01:44;2.19;2.16;
62631;PMS5003;48703;51.248;-0.546;2023-07-31T07:04:46;5.00;3.79;
62631;PMS5003;48703;51.248;-0.546;2023-07-31T07:07:48;3.11;2.44;
62631;PMS5003;48703;51.248;-0.546;2023-07-31T07:10:49;1.57;1.57;
62631;PMS5003;48703;51.248;-0.546;2023-07-31T07:13:50;1.80;1.26;
62631;PMS5003;48703;51.248;-0.546;2023-07-31T07:16:51;2.53;2.36;
62631;PMS5003;48703;51.248;-0.546;2023-07-31T07:19:53;0.90;0.90;
62631;PMS5003;48703;51.248;-0.546;2023-07-31T07:22:54;2.50;2.03;
62631;PMS5003;48703;51.248;-0.546;2023-07-31T07:25:56;0.74;0.74;
62631;PMS5003;48703;51.248;-0.546;2023-07-31T07:28:57;1.36;1.23;
62631;PMS5003;48703;51.248;-0.546;2023-07-31T07:31:58;0.64;0.57;
62631;PMS5003;48703;51.248;-0.546;2023-07-31T07:35:00;2.59;1.99;
62631;PMS5003;48703;51.248;-0.546;2023-07-31T07:38:01;1.67;1.67;
62631;PMS5003;48703;51.248;-0.546;2023-07-31T07:41:02;1.80;1.11;
62631;PMS5003;48703;51.248;-0.546;2023-07-31T07:44:04;1.67;1.51;
62631;PMS5003;48703;51.248;-0.546;2023-07-31T07:47:05;1.44;1.44;
62631;PMS5003;48703;51.248;-0.546;2023-07-31T07:50:07;1.86;1.86;
62631;PMS5003;48703;51.248;-0.546;2023-07-31T07:53:08;1.17;1.09;
62631;PMS5003;48703;51.248;-0.546;2023-07-31T07:56:09;1.83;1.49;
62631;PMS5003;48703;51.248;-0.546;2023-07-31T07:59:10;1.76;1.76;
62631;PMS5003;48703;51.248;-0.546;2023-07-31T08:02:12;2.56;1.87;
62631;PMS5003;48703;51.248;-0.546;2023-07-31T08:05:13;1.67;1.41;
62631;PMS5003;48703;51.248;-0.546;2023-07-31T08:08:15;1.80;1.40;
62631;PMS5003;48703;51.248;-0.546;2023-07-31T08:11:16;3.01;1.71;
62631;PMS5003;48703;51.248;-0.546;2023-07-31T08:14:17;1.79;1.56;
62631;PMS5003;48703;51.248;-0.546;2023-07-31T08:17:19;0.87;0.87;
62631;PMS5003;48703;51.248;-0.546;2023-07-31T08:20:20;1.00;1.00;
62631;PMS5003;48703;51.248;-0.546;2023-07-31T08:23:22;2.23;1.24;
62631;PMS5003;48703;51.248;-0.546;2023-07-31T08:26:24;1.27;0.69;
62631;PMS5003;48703;51.248;-0.546;2023-07-31T08:29:24;0.79;0.79;
62631;PMS5003;48703;51.248;-0.546;2023-07-31T08:32:26;0.61;0.57;
62631;PMS5003;48703;51.248;-0.546;2023-07-31T08:35:27;1.09;0.56;
62631;PMS5003;48703;51.248;-0.546;2023-07-31T08:38:29;0.37;0.37;
62631;PMS5003;48703;51.248;-0.546;2023-07-31T08:41:30;0.77;0.77;
62631;PMS5003;48703;51.248;-0.546;2023-07-31T08:44:31;1.07;0.69;
62631;PMS5003;48703;51.248;-0.546;2023-07-31T08:47:33;0.50;0.40;
62631;PMS5003;48703;51.248;-0.546;2023-07-31T08:50:34;1.50;1.11;
62631;PMS5003;48703;51.248;-0.546;2023-07-31T08:53:35;0.77;0.77;
62631;PMS5003;48703;51.248;-0.546;2023-07-31T08:56:37;1.53;1.01;
62631;PMS5003;48703;51.248;-0.546;2023-07-31T08:59:38;0.91;0.66;
62631;PMS5003;48703;51.248;-0.546;2023-07-31T09:02:41;1.10;0.44;
62631;PMS5003;48703;51.248;-0.546;2023-07-31T09:05:42;0.96;0.96;
62631;PMS5003;48703;51.248;-0.546;2023-07-31T09:08:42;1.46;1.20;
62631;PMS5003;48703;51.248;-0.546;2023-07-31T09:11:44;1.31;1.31;
62631;PMS5003;48703;51.248;-0.546;2023-07-31T09:14:45;1.47;1.26;
62631;PMS5003;48703;51.248;-0.546;2023-07-31T09:17:46;2.59;1.71;
62631;PMS5003;48703;51.248;-0.546;2023-07-31T09:20:59;1.84;1.84;
62631;PMS5003;48703;51.248;-0.546;2023-07-31T09:23:49;2.34;1.94;
62631;PMS5003;48703;51.248;-0.546;2023-07-31T09:26:51;2.30;2.30;
62631;PMS5003;48703;51.248;-0.546;2023-07-31T09:29:58;3.13;2.60;
62631;PMS5003;48703;51.248;-0.546;2023-07-31T09:32:59;1.47;1.47;
62631;PMS5003;48703;51.248;-0.546;2023-07-31T09:35:55;3.47;2.14;
62631;PMS5003;48703;51.248;-0.546;2023-07-31T09:38:58;1.91;1.66;
62631;PMS5003;48703;51.248;-0.546;2023-07-31T09:41:58;1.86;1.56;
62631;PMS5003;48703;51.248;-0.546;2023-07-31T09:45:06;2.24;1.73;
62631;PMS5003;48703;51.248;-0.546;2023-07-31T09:48:01;2.16;1.23;
62631;PMS5003;48703;51.248;-0.546;2023-07-31T09:51:03;1.39;1.06;
62631;PMS5003;48703;51.248;-0.546;2023-07-31T09:54:08;1.19;0.93;
62631;PMS5003;48703;51.248;-0.546;2023-07-31T09:57:05;1.10;1.10;
62631;PMS5003;48703;51.248;-0.546;2023-07-31T10:00:07;1.70;1.70;
62631;PMS5003;48703;51.248;-0.546;2023-07-31T10:03:08;2.47;1.70;
62631;PMS5003;48703;51.248;-0.546;2023-07-31T10:06:09;2.13;2.13;
62631;PMS5003;48703;51.248;-0.546;2023-07-31T10:09:11;2.27;2.14;
62631;PMS5003;48703;51.248;-0.546;2023-07-31T10:12:12;0.99;0.99;
62631;PMS5003;48703;51.248;-0.546;2023-07-31T10:15:13;2.43;2.14;
62631;PMS5003;48703;51.248;-0.546;2023-07-31T10:18:15;0.94;0.80;
62631;PMS5003;48703;51.248;-0.546;2023-07-31T10:21:16;1.04;1.04;
62631;PMS5003;48703;51.248;-0.546;2023-07-31T10:24:17;1.04;0.79;
62631;PMS5003;48703;51.248;-0.546;2023-07-31T10:27:19;1.17;0.91;
62631;PMS5003;48703;51.248;-0.546;2023-07-31T10:30:21;1.24;1.24;
62631;PMS5003;48703;51.248;-0.546;2023-07-31T10:33:21;1.89;1.29;
62631;PMS5003;48703;51.248;-0.546;2023-07-31T10:36:23;1.26;1.20;
62631;PMS5003;48703;51.248;-0.546;2023-07-31T10:39:40;1.80;1.29;
62631;PMS5003;48703;51.248;-0.546;2023-07-31T10:42:27;1.76;1.23;
62631;PMS5003;48703;51.248;-0.546;2023-07-31T10:45:30;3.07;1.81;
62631;PMS5003;48703;51.248;-0.546;2023-07-31T10:48:33;1.59;1.13;
62631;PMS5003;48703;51.248;-0.546;2023-07-31T10:51:33;3.09;2.27;
62631;PMS5003;48703;51.248;-0.546;2023-07-31T10:54:31;2.59;1.81;
62631;PMS5003;48703;51.248;-0.546;2023-07-31T10:57:32;3.27;2.37;
62631;PMS5003;48703;51.248;-0.546;2023-07-31T11:00:34;3.57;2.59;
62631;PMS5003;48703;51.248;-0.546;2023-07-31T11:03:43;2.43;1.96;
62631;PMS5003;48703;51.248;-0.546;2023-07-31T11:06:36;3.01;2.56;
62631;PMS5003;48703;51.248;-0.546;2023-07-31T11:09:38;3.34;2.59;
62631;PMS5003;48703;51.248;-0.546;2023-07-31T11:12:39;2.90;2.90;
62631;PMS5003;48703;51.248;-0.546;2023-07-31T11:15:41;3.13;2.79;
62631;PMS5003;48703;51.248;-0.546;2023-07-31T11:18:42;3.06;2.50;
62631;PMS5003;48703;51.248;-0.546;2023-07-31T11:21:43;1.67;1.67;
62631;PMS5003;48703;51.248;-0.546;2023-07-31T11:24:45;1.27;1.21;
62631;PMS5003;48703;51.248;-0.546;2023-07-31T11:27:46;4.20;2.69;
62631;PMS5003;48703;51.248;-0.546;2023-07-31T11:30:47;1.37;1.37;
62631;PMS5003;48703;51.248;-0.546;2023-07-31T11:33:49;1.90;1.90;
62631;PMS5003;48703;51.248;-0.546;2023-07-31T11:36:53;1.73;1.73;
62631;PMS5003;48703;51.248;-0.546;2023-07-31T11:39:59;2.31;1.74;
62631;PMS5003;48703;51.248;-0.546;2023-07-31T11:42:53;1.90;1.29;
62631;PMS5003;48703;51.248;-0.546;2023-07-31T11:45:54;2.60;1.90;
62631;PMS5003;48703;51.248;-0.546;2023-07-31T11:48:58;2.43;2.07;
62631;PMS5003;48703;51.248;-0.546;2023-07-31T11:51:57;2.53;1.76;
62631;PMS5003;48703;51.248;-0.546;2023-07-31T11:54:59;2.47;1.97;
62631;PMS5003;48703;51.248;-0.546;2023-07-31T11:58:00;2.54;1.94;
62631;PMS5003;48703;51.248;-0.546;2023-07-31T12:01:01;3.60;2.39;
62631;PMS5003;48703;51.248;-0.546;2023-07-31T12:04:02;2.39;1.91;
62631;PMS5003;48703;51.248;-0.546;2023-07-31T12:07:04;2.47;2.29;
62631;PMS5003;48703;51.248;-0.546;2023-07-31T12:10:05;1.37;1.37;
62631;PMS5003;48703;51.248;-0.546;2023-07-31T12:13:07;3.19;2.11;
62631;PMS5003;48703;51.248;-0.546;2023-07-31T12:16:08;2.89;2.89;
62631;PMS5003;48703;51.248;-0.546;2023-07-31T12:19:09;3.37;2.81;
62631;PMS5003;48703;51.248;-0.546;2023-07-31T12:22:11;3.40;2.71;
62631;PMS5003;48703;51.248;-0.546;2023-07-31T12:25:15;2.13;1.87;
62631;PMS5003;48703;51.248;-0.546;2023-07-31T12:28:13;3.14;3.14;
62631;PMS5003;48703;51.248;-0.546;2023-07-31T12:31:15;3.26;2.79;
62631;PMS5003;48703;51.248;-0.546;2023-07-31T12:34:16;4.16;3.43;
62631;PMS5003;48703;51.248;-0.546;2023-07-31T12:37:17;3.11;2.84;
62631;PMS5003;48703;51.248;-0.546;2023-07-31T12:40:19;4.04;3.71;
62631;PMS5003;48703;51.248;-0.546;2023-07-31T12:43:20;3.79;3.14;
62631;PMS5003;48703;51.248;-0.546;2023-07-31T12:46:21;3.87;3.47;
62631;PMS5003;48703;51.248;-0.546;2023-07-31T12:49:23;4.89;4.03;
62631;PMS5003;48703;51.248;-0.546;2023-07-31T12:52:24;3.53;3.23;
62631;PMS5003;48703;51.248;-0.546;2023-07-31T12:55:25;6.17;4.49;
62631;PMS5003;48703;51.248;-0.546;2023-07-31T12:58:27;4.96;3.91;
62631;PMS5003;48703;51.248;-0.546;2023-07-31T13:01:28;6.46;5.60;
62631;PMS5003;48703;51.248;-0.546;2023-07-31T13:04:30;6.40;5.40;
62631;PMS5003;48703;51.248;-0.546;2023-07-31T13:07:31;5.07;4.50;
62631;PMS5003;48703;51.248;-0.546;2023-07-31T13:10:32;5.41;4.54;
62631;PMS5003;48703;51.248;-0.546;2023-07-31T13:13:34;7.00;5.20;
62631;PMS5003;48703;51.248;-0.546;2023-07-31T13:16:35;5.73;5.73;
62631;PMS5003;48703;51.248;-0.546;2023-07-31T13:19:37;4.23;4.23;
62631;PMS5003;48703;51.248;-0.546;2023-07-31T13:22:38;6.36;5.64;
62631;PMS5003;48703;51.248;-0.546;2023-07-31T13:25:39;5.69;4.67;
62631;PMS5003;48703;51.248;-0.546;2023-07-31T13:28:41;5.46;5.01;
62631;PMS5003;48703;51.248;-0.546;2023-07-31T13:31:42;7.91;5.31;
62631;PMS5003;48703;51.248;-0.546;2023-07-31T13:34:44;6.87;6.00;
62631;PMS5003;48703;51.248;-0.546;2023-07-31T13:37:45;5.40;5.10;
62631;PMS5003;48703;51.248;-0.546;2023-07-31T13:40:46;6.29;5.53;
62631;PMS5003;48703;51.248;-0.546;2023-07-31T13:43:47;6.51;5.44;
62631;PMS5003;48703;51.248;-0.546;2023-07-31T13:46:49;6.26;5.19;
62631;PMS5003;48703;51.248;-0.546;2023-07-31T13:49:50;7.87;6.59;
62631;PMS5003;48703;51.248;-0.546;2023-07-31T13:52:52;6.43;6.17;
62631;PMS5003;48703;51.248;-0.546;2023-07-31T13:55:53;7.09;5.36;
62631;PMS5003;48703;51.248;-0.546;2023-07-31T13:58:54;6.11;5.81;
62631;PMS5003;48703;51.248;-0.546;2023-07-31T14:01:56;5.99;5.99;
62631;PMS5003;48703;51.248;-0.546;2023-07-31T14:04:57;7.49;6.16;
62631;PMS5003;48703;51.248;-0.546;2023-07-31T14:07:59;6.61;5.10;
62631;PMS5003;48703;51.248;-0.546;2023-07-31T14:11:00;7.19;7.01;
62631;PMS5003;48703;51.248;-0.546;2023-07-31T14:14:01;7.86;6.10;
62631;PMS5003;48703;51.248;-0.546;2023-07-31T14:17:03;10.07;7.97;
62631;PMS5003;48703;51.248;-0.546;2023-07-31T14:20:04;8.10;6.91;
62631;PMS5003;48703;51.248;-0.546;2023-07-31T14:23:05;7.33;6.43;
62631;PMS5003;48703;51.248;-0.546;2023-07-31T14:26:06;8.74;7.73;
62631;PMS5003;48703;51.248;-0.546;2023-07-31T14:29:07;7.71;6.96;
62631;PMS5003;48703;51.248;-0.546;2023-07-31T14:32:09;9.40;7.66;
62631;PMS5003;48703;51.248;-0.546;2023-07-31T14:35:10;7.83;6.77;
62631;PMS5003;48703;51.248;-0.546;2023-07-31T14:38:12;8.31;7.46;
62631;PMS5003;48703;51.248;-0.546;2023-07-31T14:41:13;9.75;7.45;
62631;PMS5003;48703;51.248;-0.546;2023-07-31T14:44:14;7.19;5.94;
62631;PMS5003;48703;51.248;-0.546;2023-07-31T14:47:16;8.94;6.94;
62631;PMS5003;48703;51.248;-0.546;2023-07-31T14:50:17;7.47;6.51;
62631;PMS5003;48703;51.248;-0.546;2023-07-31T14:53:18;6.91;5.84;
62631;PMS5003;48703;51.248;-0.546;2023-07-31T14:56:20;7.24;6.29;
62631;PMS5003;48703;51.248;-0.546;2023-07-31T14:59:21;7.30;5.71;
62631;PMS5003;48703;51.248;-0.546;2023-07-31T15:02:23;8.84;7.64;
62631;PMS5003;48703;51.248;-0.546;2023-07-31T15:05:24;6.50;5.73;
62631;PMS5003;48703;51.248;-0.546;2023-07-31T15:08:25;5.83;4.54;
62631;PMS5003;48703;51.248;-0.546;2023-07-31T15:11:27;6.47;6.11;
62631;PMS5003;48703;51.248;-0.546;2023-07-31T15:14:28;6.06;6.06;
62631;PMS5003;48703;51.248;-0.546;2023-07-31T15:17:29;9.48;8.16;
62631;PMS5003;48703;51.248;-0.546;2023-07-31T15:20:30;8.80;7.83;
62631;PMS5003;48703;51.248;-0.546;2023-07-31T15:23:32;6.70;6.70;
62631;PMS5003;48703;51.248;-0.546;2023-07-31T15:26:33;7.07;6.67;
62631;PMS5003;48703;51.248;-0.546;2023-07-31T15:29:35;9.10;8.43;
62631;PMS5003;48703;51.248;-0.546;2023-07-31T15:32:37;7.21;6.53;
62631;PMS5003;48703;51.248;-0.546;2023-07-31T15:35:38;8.14;7.69;
62631;PMS5003;48703;51.248;-0.546;2023-07-31T15:38:39;7.67;5.91;
62631;PMS5003;48703;51.248;-0.546;2023-07-31T15:41:40;9.19;7.74;
62631;PMS5003;48703;51.248;-0.546;2023-07-31T15:44:41;6.70;6.13;
62631;PMS5003;48703;51.248;-0.546;2023-07-31T15:47:43;7.03;6.47;
62631;PMS5003;48703;51.248;-0.546;2023-07-31T15:50:44;6.81;5.49;
62631;PMS5003;48703;51.248;-0.546;2023-07-31T15:53:45;7.44;6.01;
62631;PMS5003;48703;51.248;-0.546;2023-07-31T15:56:47;5.61;5.14;
62631;PMS5003;48703;51.248;-0.546;2023-07-31T15:59:48;5.69;5.37;
62631;PMS5003;48703;51.248;-0.546;2023-07-31T16:02:50;4.87;4.39;
62631;PMS5003;48703;51.248;-0.546;2023-07-31T16:05:51;6.45;5.80;
62631;PMS5003;48703;51.248;-0.546;2023-07-31T16:08:52;5.27;4.20;
62631;PMS5003;48703;51.248;-0.546;2023-07-31T16:11:53;6.16;5.16;
62631;PMS5003;48703;51.248;-0.546;2023-07-31T16:14:55;3.81;3.79;
62631;PMS5003;48703;51.248;-0.546;2023-07-31T16:17:57;4.36;3.34;
62631;PMS5003;48703;51.248;-0.546;2023-07-31T16:21:59;4.59;4.59;
62631;PMS5003;48703;51.248;-0.546;2023-07-31T16:25:00;4.90;3.63;
62631;PMS5003;48703;51.248;-0.546;2023-07-31T16:28:01;4.43;3.73;
62631;PMS5003;48703;51.248;-0.546;2023-07-31T16:31:03;3.60;3.23;
62631;PMS5003;48703;51.248;-0.546;2023-07-31T16:34:04;5.00;4.43;
62631;PMS5003;48703;51.248;-0.546;2023-07-31T16:37:06;3.23;3.06;
62631;PMS5003;48703;51.248;-0.546;2023-07-31T16:40:07;5.40;4.03;
62631;PMS5003;48703;51.248;-0.546;2023-07-31T16:43:08;4.16;3.56;
62631;PMS5003;48703;51.248;-0.546;2023-07-31T16:46:10;4.46;4.19;
62631;PMS5003;48703;51.248;-0.546;2023-07-31T16:49:11;4.27;3.80;
62631;PMS5003;48703;51.248;-0.546;2023-07-31T16:52:12;3.89;3.50;
62631;PMS5003;48703;51.248;-0.546;2023-07-31T16:55:14;5.11;4.17;
62631;PMS5003;48703;51.248;-0.546;2023-07-31T16:58:15;3.79;3.79;
62631;PMS5003;48703;51.248;-0.546;2023-07-31T17:01:16;4.46;4.29;
62631;PMS5003;48703;51.248;-0.546;2023-07-31T17:04:18;3.97;3.66;
62631;PMS5003;48703;51.248;-0.546;2023-07-31T17:06:19;4.77;4.19;
62631;PMS5003;48703;51.248;-0.546;2023-07-31T17:09:20;5.93;4.47;
62631;PMS5003;48703;51.248;-0.546;2023-07-31T17:12:21;4.07;3.89;
62631;PMS5003;48703;51.248;-0.546;2023-07-31T17:15:23;4.44;4.27;
62631;PMS5003;48703;51.248;-0.546;2023-07-31T17:18:24;4.50;3.64;
62631;PMS5003;48703;51.248;-0.546;2023-07-31T17:21:26;4.80;4.11;
62631;PMS5003;48703;51.248;-0.546;2023-07-31T17:24:27;5.33;4.90;
62631;PMS5003;48703;51.248;-0.546;2023-07-31T17:26:28;5.64;4.24;
62631;PMS5003;48703;51.248;-0.546;2023-07-31T17:29:29;6.70;5.35;
62631;PMS5003;48703;51.248;-0.546;2023-07-31T17:32:30;6.71;5.66;
62631;PMS5003;48703;51.248;-0.546;2023-07-31T17:35:32;5.56;4.80;
62631;PMS5003;48703;51.248;-0.546;2023-07-31T17:38:33;5.89;4.91;
62631;PMS5003;48703;51.248;-0.546;2023-07-31T17:41:34;5.61;4.16;
62631;PMS5003;48703;51.248;-0.546;2023-07-31T17:44:36;6.36;4.51;
62631;PMS5003;48703;51.248;-0.546;2023-07-31T17:47:37;5.43;5.40;
62631;PMS5003;48703;51.248;-0.546;2023-07-31T18:06:53;3.41;3.40;
62631;PMS5003;48703;51.248;-0.546;2023-07-31T18:10:47;3.54;2.94;
62631;PMS5003;48703;51.248;-0.546;2023-07-31T18:13:49;4.90;3.96;
62631;PMS5003;48703;51.248;-0.546;2023-07-31T18:16:51;4.61;4.19;
62631;PMS5003;48703;51.248;-0.546;2023-07-31T18:19:52;3.97;3.97;
62631;PMS5003;48703;51.248;-0.546;2023-07-31T18:22:54;4.69;3.83;
62631;PMS5003;48703;51.248;-0.546;2023-07-31T18:25:55;4.90;4.21;
62631;PMS5003;48703;51.248;-0.546;2023-07-31T18:28:56;3.50;3.50;
62631;PMS5003;48703;51.248;-0.546;2023-07-31T18:31:57;3.86;3.59;
62631;PMS5003;48703;51.248;-0.546;2023-07-31T18:34:59;5.24;4.66;
62631;PMS5003;48703;51.248;-0.546;2023-07-31T18:38:00;5.40;3.27;
62631;PMS5003;48703;51.248;-0.546;2023-07-31T18:41:03;4.20;4.06;
62631;PMS5003;48703;51.248;-0.546;2023-07-31T18:44:03;5.81;4.40;
62631;PMS5003;48703;51.248;-0.546;2023-07-31T18:47:04;5.31;5.26;